sensor_id;sensor_type;location;lat;lon;timestamp;pressure;altitude;pressure_sealevel;temperature;humidity
61961;BME280;47923;42.506;24.192;2024-03-02T00:00:02;94829.84;;;4.58;99.45
61961;BME280;47923;42.506;24.192;2024-03-02T00:02:42;94750.50;;;4.13;99.77
61961;BME280;47923;42.506;24.192;2024-03-02T00:05:11;94822.91;;;4.69;99.72
61961;BME280;47923;42.506;24.192;2024-03-02T00:07:37;94967.44;;;5.55;99.54
61961;BME280;47923;42.506;24.192;2024-03-02T00:10:08;95111.25;;;6.52;99.06
61961;BME280;47923;42.506;24.192;2024-03-02T00:12:38;95031.72;;;6.04;99.23
61961;BME280;47923;42.506;24.192;2024-03-02T00:18:02;94902.75;;;5.16;98.79
61961;BME280;47923;42.506;24.192;2024-03-02T00:20:30;94999.16;;;5.53;98.61
61961;BME280;47923;42.506;24.192;2024-03-02T00:23:09;95113.31;;;6.43;99.02
61961;BME280;47923;42.506;24.192;2024-03-02T00:25:43;95112.97;;;6.45;99.02
61961;BME280;47923;42.506;24.192;2024-03-02T00:33:44;95109.75;;;6.39;99.22
61961;BME280;47923;42.506;24.192;2024-03-02T00:36:12;95114.09;;;6.44;99.46
61961;BME280;47923;42.506;24.192;2024-03-02T00:38:52;94993.66;;;5.49;99.95
61961;BME280;47923;42.506;24.192;2024-03-02T00:41:24;94853.47;;;4.81;99.31
61961;BME280;47923;42.506;24.192;2024-03-02T00:44:04;95105.69;;;6.45;99.58
61961;BME280;47923;42.506;24.192;2024-03-02T00:46:38;94973.47;;;5.52;99.59
61961;BME280;47923;42.506;24.192;2024-03-02T00:49:25;95095.66;;;6.30;99.77
61961;BME280;47923;42.506;24.192;2024-03-02T00:51:52;94866.72;;;4.77;99.52
61961;BME280;47923;42.506;24.192;2024-03-02T00:54:23;94672.19;;;3.64;98.96
61961;BME280;47923;42.506;24.192;2024-03-02T00:56:51;94992.44;;;5.59;99.39
61961;BME280;47923;42.506;24.192;2024-03-02T00:59:17;94833.88;;;4.64;99.58
61961;BME280;47923;42.506;24.192;2024-03-02T01:01:43;94778.47;;;4.28;99.24
61961;BME280;47923;42.506;24.192;2024-03-02T01:04:09;94754.72;;;4.14;99.29
61961;BME280;47923;42.506;24.192;2024-03-02T01:06:35;95008.81;;;5.82;99.82
61961;BME280;47923;42.506;24.192;2024-03-02T01:09:01;94514.09;;;2.64;99.78
61961;BME280;47923;42.506;24.192;2024-03-02T01:11:26;94787.28;;;4.41;99.67
61961;BME280;47923;42.506;24.192;2024-03-02T01:13:53;94842.66;;;4.77;99.72
61961;BME280;47923;42.506;24.192;2024-03-02T01:16:18;95037.59;;;6.09;100.00
61961;BME280;47923;42.506;24.192;2024-03-02T01:18:44;94827.72;;;4.52;100.00
61961;BME280;47923;42.506;24.192;2024-03-02T01:21:10;94903.97;;;5.19;100.00
61961;BME280;47923;42.506;24.192;2024-03-02T01:23:35;94879.41;;;5.29;100.00
61961;BME280;47923;42.506;24.192;2024-03-02T01:26:01;94925.47;;;5.35;100.00
61961;BME280;47923;42.506;24.192;2024-03-02T01:28:26;94866.94;;;5.09;100.00
61961;BME280;47923;42.506;24.192;2024-03-02T01:30:52;94935.28;;;5.55;100.00
61961;BME280;47923;42.506;24.192;2024-03-02T01:33:19;94952.19;;;5.71;100.00
61961;BME280;47923;42.506;24.192;2024-03-02T01:35:45;94790.72;;;4.66;100.00
61961;BME280;47923;42.506;24.192;2024-03-02T01:38:11;94896.91;;;5.39;100.00
61961;BME280;47923;42.506;24.192;2024-03-02T01:40:37;94819.13;;;4.95;100.00
61961;BME280;47923;42.506;24.192;2024-03-02T01:43:06;94786.59;;;4.56;100.00
61961;BME280;47923;42.506;24.192;2024-03-02T01:45:33;95018.06;;;6.37;100.00
61961;BME280;47923;42.506;24.192;2024-03-02T01:47:59;94555.00;;;3.26;100.00
61961;BME280;47923;42.506;24.192;2024-03-02T01:50:26;95019.31;;;6.40;100.00
61961;BME280;47923;42.506;24.192;2024-03-02T01:52:51;94727.63;;;4.40;100.00
61961;BME280;47923;42.506;24.192;2024-03-02T01:55:17;94576.09;;;3.07;100.00
61961;BME280;47923;42.506;24.192;2024-03-02T01:57:42;95057.34;;;6.29;100.00
61961;BME280;47923;42.506;24.192;2024-03-02T02:00:10;94945.94;;;5.79;100.00
61961;BME280;47923;42.506;24.192;2024-03-02T02:02:36;94909.59;;;5.54;100.00
61961;BME280;47923;42.506;24.192;2024-03-02T02:05:01;95023.94;;;6.27;100.00
61961;BME280;47923;42.506;24.192;2024-03-02T02:07:27;94670.97;;;3.86;100.00
61961;BME280;47923;42.506;24.192;2024-03-02T02:09:52;94822.44;;;4.92;100.00
61961;BME280;47923;42.506;24.192;2024-03-02T02:12:18;94781.78;;;4.62;100.00
61961;BME280;47923;42.506;24.192;2024-03-02T02:14:49;94901.00;;;5.48;100.00
61961;BME280;47923;42.506;24.192;2024-03-02T02:17:18;94764.88;;;4.58;100.00
61961;BME280;47923;42.506;24.192;2024-03-02T02:19:44;94859.22;;;5.32;100.00
61961;BME280;47923;42.506;24.192;2024-03-02T02:22:10;94752.72;;;4.48;100.00
61961;BME280;47923;42.506;24.192;2024-03-02T02:24:36;94894.75;;;5.57;100.00
61961;BME280;47923;42.506;24.192;2024-03-02T02:27:01;94774.75;;;4.82;100.00
61961;BME280;47923;42.506;24.192;2024-03-02T02:29:27;94919.53;;;5.66;100.00
61961;BME280;47923;42.506;24.192;2024-03-02T02:31:52;94839.34;;;5.20;100.00
61961;BME280;47923;42.506;24.192;2024-03-02T02:34:18;94980.41;;;6.05;100.00
61961;BME280;47923;42.506;24.192;2024-03-02T02:36:43;94800.59;;;4.90;100.00
61961;BME280;47923;42.506;24.192;2024-03-02T02:39:14;94787.34;;;4.93;100.00
61961;BME280;47923;42.506;24.192;2024-03-02T02:41:41;94915.41;;;5.56;100.00
61961;BME280;47923;42.506;24.192;2024-03-02T02:44:06;94937.25;;;5.58;100.00
61961;BME280;47923;42.506;24.192;2024-03-02T02:46:31;94905.47;;;5.57;100.00
61961;BME280;47923;42.506;24.192;2024-03-02T02:48:57;94915.41;;;5.56;100.00
61961;BME280;47923;42.506;24.192;2024-03-02T02:51:22;94954.88;;;5.71;100.00
61961;BME280;47923;42.506;24.192;2024-03-02T02:53:50;95040.53;;;6.04;100.00
61961;BME280;47923;42.506;24.192;2024-03-02T02:56:16;94798.19;;;4.60;100.00
61961;BME280;47923;42.506;24.192;2024-03-02T02:58:41;94847.56;;;4.87;100.00
61961;BME280;47923;42.506;24.192;2024-03-02T03:01:07;94925.47;;;5.47;100.00
61961;BME280;47923;42.506;24.192;2024-03-02T03:03:33;94872.94;;;5.18;100.00
61961;BME280;47923;42.506;24.192;2024-03-02T03:05:58;94891.91;;;5.37;100.00
61961;BME280;47923;42.506;24.192;2024-03-02T03:08:24;94762.09;;;4.42;100.00
61961;BME280;47923;42.506;24.192;2024-03-02T03:10:49;94788.38;;;4.52;100.00
61961;BME280;47923;42.506;24.192;2024-03-02T03:13:15;94736.91;;;4.31;100.00
61961;BME280;47923;42.506;24.192;2024-03-02T03:15:40;94748.38;;;4.43;100.00
61961;BME280;47923;42.506;24.192;2024-03-02T03:18:06;94759.94;;;4.60;100.00
61961;BME280;47923;42.506;24.192;2024-03-02T03:20:33;94998.19;;;6.10;100.00
61961;BME280;47923;42.506;24.192;2024-03-02T03:22:59;95006.66;;;6.12;100.00
61961;BME280;47923;42.506;24.192;2024-03-02T03:25:24;94803.31;;;4.78;100.00
61961;BME280;47923;42.506;24.192;2024-03-02T03:27:50;94471.78;;;2.51;100.00
61961;BME280;47923;42.506;24.192;2024-03-02T03:30:18;94779.78;;;4.47;100.00
61961;BME280;47923;42.506;24.192;2024-03-02T03:32:43;94875.06;;;5.12;100.00
61961;BME280;47923;42.506;24.192;2024-03-02T03:35:09;95026.44;;;6.07;100.00
61961;BME280;47923;42.506;24.192;2024-03-02T03:37:34;94799.41;;;4.63;100.00
61961;BME280;47923;42.506;24.192;2024-03-02T03:40:04;94944.88;;;5.56;100.00
61961;BME280;47923;42.506;24.192;2024-03-02T03:42:38;95022.63;;;6.08;100.00
61961;BME280;47923;42.506;24.192;2024-03-02T03:45:05;94899.63;;;5.14;100.00
61961;BME280;47923;42.506;24.192;2024-03-02T03:47:34;95024.09;;;6.06;100.00
61961;BME280;47923;42.506;24.192;2024-03-02T03:49:59;94901.97;;;5.16;100.00
61961;BME280;47923;42.506;24.192;2024-03-02T03:52:25;94923.63;;;5.23;100.00
61961;BME280;47923;42.506;24.192;2024-03-02T03:54:50;94776.91;;;4.52;100.00
61961;BME280;47923;42.506;24.192;2024-03-02T03:57:16;94794.38;;;4.61;100.00
61961;BME280;47923;42.506;24.192;2024-03-02T03:59:42;94869.97;;;4.95;100.00
61961;BME280;47923;42.506;24.192;2024-03-02T04:02:08;95019.63;;;6.10;100.00
61961;BME280;47923;42.506;24.192;2024-03-02T04:04:34;94711.25;;;3.81;100.00
61961;BME280;47923;42.506;24.192;2024-03-02T04:07:00;95010.13;;;6.00;100.00
61961;BME280;47923;42.506;24.192;2024-03-02T04:09:25;94794.63;;;4.56;100.00
61961;BME280;47923;42.506;24.192;2024-03-02T04:11:51;94875.78;;;4.85;100.00
61961;BME280;47923;42.506;24.192;2024-03-02T04:14:16;94950.31;;;5.72;100.00
61961;BME280;47923;42.506;24.192;2024-03-02T04:16:42;95011.91;;;6.08;100.00
61961;BME280;47923;42.506;24.192;2024-03-02T04:19:07;94893.59;;;5.30;100.00
61961;BME280;47923;42.506;24.192;2024-03-02T04:21:33;94905.38;;;5.41;100.00
61961;BME280;47923;42.506;24.192;2024-03-02T04:23:58;94996.84;;;6.04;100.00
61961;BME280;47923;42.506;24.192;2024-03-02T04:26:25;94851.88;;;4.92;100.00
61961;BME280;47923;42.506;24.192;2024-03-02T04:28:53;94906.84;;;5.26;100.00
61961;BME280;47923;42.506;24.192;2024-03-02T04:31:19;94885.91;;;5.16;100.00
61961;BME280;47923;42.506;24.192;2024-03-02T04:33:45;94778.78;;;4.51;100.00
61961;BME280;47923;42.506;24.192;2024-03-02T04:36:10;94684.75;;;3.64;100.00
61961;BME280;47923;42.506;24.192;2024-03-02T04:38:36;95010.03;;;5.85;100.00
61961;BME280;47923;42.506;24.192;2024-03-02T04:41:02;95002.91;;;5.76;100.00
61961;BME280;47923;42.506;24.192;2024-03-02T04:43:27;94927.63;;;5.05;100.00
61961;BME280;47923;42.506;24.192;2024-03-02T04:45:53;94818.25;;;4.30;100.00
61961;BME280;47923;42.506;24.192;2024-03-02T04:48:18;94821.59;;;4.39;100.00
61961;BME280;47923;42.506;24.192;2024-03-02T04:50:44;94843.31;;;4.37;100.00
61961;BME280;47923;42.506;24.192;2024-03-02T04:53:10;94971.03;;;5.10;100.00
61961;BME280;47923;42.506;24.192;2024-03-02T04:55:35;94741.09;;;3.71;100.00
61961;BME280;47923;42.506;24.192;2024-03-02T04:58:20;94945.16;;;5.02;100.00
61961;BME280;47923;42.506;24.192;2024-03-02T05:00:46;94851.56;;;4.32;100.00
61961;BME280;47923;42.506;24.192;2024-03-02T05:03:12;94947.94;;;4.93;100.00
61961;BME280;47923;42.506;24.192;2024-03-02T05:05:37;94827.59;;;4.11;100.00
61961;BME280;47923;42.506;24.192;2024-03-02T05:08:03;94865.81;;;4.36;100.00
61961;BME280;47923;42.506;24.192;2024-03-02T05:10:29;94900.84;;;4.56;100.00
61961;BME280;47923;42.506;24.192;2024-03-02T05:12:54;94724.31;;;3.37;100.00
61961;BME280;47923;42.506;24.192;2024-03-02T05:15:24;94902.84;;;4.59;100.00
61961;BME280;47923;42.506;24.192;2024-03-02T05:17:50;94927.94;;;4.66;100.00
61961;BME280;47923;42.506;24.192;2024-03-02T05:20:15;95039.34;;;5.53;100.00
61961;BME280;47923;42.506;24.192;2024-03-02T05:22:42;95048.16;;;5.53;100.00
61961;BME280;47923;42.506;24.192;2024-03-02T05:25:07;94859.22;;;4.22;100.00
61961;BME280;47923;42.506;24.192;2024-03-02T05:27:34;94882.75;;;4.28;100.00
61961;BME280;47923;42.506;24.192;2024-03-02T05:30:00;94899.91;;;4.39;100.00
61961;BME280;47923;42.506;24.192;2024-03-02T05:32:26;94707.00;;;3.10;100.00
61961;BME280;47923;42.506;24.192;2024-03-02T05:34:51;94921.69;;;4.62;100.00
61961;BME280;47923;42.506;24.192;2024-03-02T05:37:17;94905.97;;;4.61;100.00
61961;BME280;47923;42.506;24.192;2024-03-02T05:39:43;94885.44;;;4.28;100.00
61961;BME280;47923;42.506;24.192;2024-03-02T05:42:09;94876.09;;;4.34;100.00
61961;BME280;47923;42.506;24.192;2024-03-02T05:44:35;95064.88;;;5.50;100.00
61961;BME280;47923;42.506;24.192;2024-03-02T05:47:01;94949.69;;;4.65;100.00
61961;BME280;47923;42.506;24.192;2024-03-02T05:49:26;94838.88;;;3.96;100.00
61961;BME280;47923;42.506;24.192;2024-03-02T05:51:52;94952.69;;;4.76;100.00
61961;BME280;47923;42.506;24.192;2024-03-02T05:54:17;94875.06;;;4.27;100.00
61961;BME280;47923;42.506;24.192;2024-03-02T05:56:43;94958.41;;;4.86;100.00
61961;BME280;47923;42.506;24.192;2024-03-02T05:59:08;95062.13;;;5.59;100.00
61961;BME280;47923;42.506;24.192;2024-03-02T06:01:45;94983.97;;;5.20;100.00
61961;BME280;47923;42.506;24.192;2024-03-02T06:04:17;95054.41;;;5.70;100.00
61961;BME280;47923;42.506;24.192;2024-03-02T06:06:43;95020.81;;;5.23;100.00
61961;BME280;47923;42.506;24.192;2024-03-02T06:09:08;94933.41;;;4.70;100.00
61961;BME280;47923;42.506;24.192;2024-03-02T06:11:39;95064.91;;;5.63;100.00
61961;BME280;47923;42.506;24.192;2024-03-02T06:14:08;94907.88;;;4.60;100.00
61961;BME280;47923;42.506;24.192;2024-03-02T06:16:34;95060.19;;;5.72;100.00
61961;BME280;47923;42.506;24.192;2024-03-02T06:19:00;94832.25;;;4.14;100.00
61961;BME280;47923;42.506;24.192;2024-03-02T06:21:27;94963.56;;;5.04;100.00
61961;BME280;47923;42.506;24.192;2024-03-02T06:23:53;94950.94;;;4.80;100.00
61961;BME280;47923;42.506;24.192;2024-03-02T06:26:18;94607.59;;;2.47;100.00
61961;BME280;47923;42.506;24.192;2024-03-02T06:28:45;94843.63;;;4.11;100.00
61961;BME280;47923;42.506;24.192;2024-03-02T06:31:12;94728.00;;;3.32;100.00
61961;BME280;47923;42.506;24.192;2024-03-02T06:33:37;94434.69;;;1.37;100.00
61961;BME280;47923;42.506;24.192;2024-03-02T06:36:03;95090.59;;;5.76;100.00
61961;BME280;47923;42.506;24.192;2024-03-02T06:38:29;94748.00;;;3.72;100.00
61961;BME280;47923;42.506;24.192;2024-03-02T06:40:57;94855.25;;;4.28;100.00
61961;BME280;47923;42.506;24.192;2024-03-02T06:43:22;94946.38;;;4.92;100.00
61961;BME280;47923;42.506;24.192;2024-03-02T06:45:49;94985.44;;;5.18;100.00
61961;BME280;47923;42.506;24.192;2024-03-02T06:48:15;94969.13;;;5.11;100.00
61961;BME280;47923;42.506;24.192;2024-03-02T06:50:48;95079.53;;;5.90;100.00
61961;BME280;47923;42.506;24.192;2024-03-02T06:53:14;95082.19;;;5.90;100.00
61961;BME280;47923;42.506;24.192;2024-03-02T06:55:45;94751.09;;;3.62;100.00
61961;BME280;47923;42.506;24.192;2024-03-02T06:58:14;94993.13;;;5.19;100.00
61961;BME280;47923;42.506;24.192;2024-03-02T07:00:42;94974.94;;;5.37;100.00
61961;BME280;47923;42.506;24.192;2024-03-02T07:03:09;94998.03;;;5.42;100.00
61961;BME280;47923;42.506;24.192;2024-03-02T07:05:35;94737.50;;;3.67;100.00
61961;BME280;47923;42.506;24.192;2024-03-02T07:08:00;94480.22;;;2.19;100.00
61961;BME280;47923;42.506;24.192;2024-03-02T07:10:26;94984.41;;;5.59;100.00
61961;BME280;47923;42.506;24.192;2024-03-02T07:12:52;95086.97;;;6.33;100.00
61961;BME280;47923;42.506;24.192;2024-03-02T07:15:17;94909.53;;;5.14;100.00
61961;BME280;47923;42.506;24.192;2024-03-02T07:17:52;95093.94;;;6.50;100.00
61961;BME280;47923;42.506;24.192;2024-03-02T07:20:17;95093.25;;;6.53;100.00
61961;BME280;47923;42.506;24.192;2024-03-02T07:22:43;94929.63;;;5.44;100.00
61961;BME280;47923;42.506;24.192;2024-03-02T07:25:08;94918.13;;;5.19;100.00
61961;BME280;47923;42.506;24.192;2024-03-02T07:27:34;95016.88;;;5.82;100.00
61961;BME280;47923;42.506;24.192;2024-03-02T07:30:02;94738.56;;;3.99;100.00
61961;BME280;47923;42.506;24.192;2024-03-02T07:32:27;94970.13;;;5.31;100.00
61961;BME280;47923;42.506;24.192;2024-03-02T07:34:53;94600.13;;;2.94;100.00
61961;BME280;47923;42.506;24.192;2024-03-02T07:37:18;94993.09;;;5.68;100.00
61961;BME280;47923;42.506;24.192;2024-03-02T07:39:44;95009.94;;;5.81;100.00
61961;BME280;47923;42.506;24.192;2024-03-02T07:42:10;94885.91;;;4.91;100.00
61961;BME280;47923;42.506;24.192;2024-03-02T07:44:35;95040.88;;;5.78;100.00
61961;BME280;47923;42.506;24.192;2024-03-02T07:47:01;94989.28;;;5.69;100.00
61961;BME280;47923;42.506;24.192;2024-03-02T07:49:26;95012.38;;;5.86;100.00
61961;BME280;47923;42.506;24.192;2024-03-02T07:51:52;94802.97;;;4.67;100.00
61961;BME280;47923;42.506;24.192;2024-03-02T07:54:17;94676.78;;;3.76;100.00
61961;BME280;47923;42.506;24.192;2024-03-02T07:56:43;95015.38;;;6.09;100.00
61961;BME280;47923;42.506;24.192;2024-03-02T07:59:08;94984.06;;;5.73;100.00
61961;BME280;47923;42.506;24.192;2024-03-02T08:01:34;94869.31;;;4.74;100.00
61961;BME280;47923;42.506;24.192;2024-03-02T08:04:02;94868.41;;;4.57;100.00
61961;BME280;47923;42.506;24.192;2024-03-02T08:06:30;94883.38;;;4.70;100.00
61961;BME280;47923;42.506;24.192;2024-03-02T08:08:56;94979.84;;;5.47;100.00
61961;BME280;47923;42.506;24.192;2024-03-02T08:11:22;94769.31;;;4.05;100.00
61961;BME280;47923;42.506;24.192;2024-03-02T08:13:48;94899.50;;;5.11;100.00
61961;BME280;47923;42.506;24.192;2024-03-02T08:16:17;94905.22;;;5.09;100.00
61961;BME280;47923;42.506;24.192;2024-03-02T08:18:49;95113.31;;;6.43;100.00
61961;BME280;47923;42.506;24.192;2024-03-02T08:21:15;94732.22;;;3.91;100.00
61961;BME280;47923;42.506;24.192;2024-03-02T08:23:42;94639.66;;;3.25;100.00
61961;BME280;47923;42.506;24.192;2024-03-02T08:26:08;94624.91;;;3.07;100.00
61961;BME280;47923;42.506;24.192;2024-03-02T08:28:34;94735.91;;;3.99;100.00
61961;BME280;47923;42.506;24.192;2024-03-02T08:31:00;94734.44;;;3.89;100.00
61961;BME280;47923;42.506;24.192;2024-03-02T08:33:25;95117.50;;;6.69;100.00
61961;BME280;47923;42.506;24.192;2024-03-02T08:35:51;94986.69;;;5.85;100.00
61961;BME280;47923;42.506;24.192;2024-03-02T08:38:16;95009.59;;;5.82;100.00
61961;BME280;47923;42.506;24.192;2024-03-02T08:40:42;95123.25;;;6.43;100.00
61961;BME280;47923;42.506;24.192;2024-03-02T08:43:07;94839.88;;;4.49;100.00
61961;BME280;47923;42.506;24.192;2024-03-02T08:45:33;94971.34;;;5.33;100.00
61961;BME280;47923;42.506;24.192;2024-03-02T08:47:59;94889.94;;;4.85;100.00
61961;BME280;47923;42.506;24.192;2024-03-02T08:50:25;95017.53;;;5.79;100.00
61961;BME280;47923;42.506;24.192;2024-03-02T08:52:50;94970.69;;;5.24;100.00
61961;BME280;47923;42.506;24.192;2024-03-02T08:55:16;94606.44;;;2.90;100.00
61961;BME280;47923;42.506;24.192;2024-03-02T08:57:41;94864.75;;;4.74;100.00
61961;BME280;47923;42.506;24.192;2024-03-02T09:00:07;94828.59;;;4.31;100.00
61961;BME280;47923;42.506;24.192;2024-03-02T09:02:34;94654.56;;;3.26;100.00
61961;BME280;47923;42.506;24.192;2024-03-02T09:04:59;94894.75;;;4.80;100.00
61961;BME280;47923;42.506;24.192;2024-03-02T09:07:26;94701.03;;;3.71;100.00
61961;BME280;47923;42.506;24.192;2024-03-02T09:09:51;94967.78;;;5.53;100.00
61961;BME280;47923;42.506;24.192;2024-03-02T09:12:18;95131.97;;;6.52;100.00
61961;BME280;47923;42.506;24.192;2024-03-02T09:14:44;95031.19;;;5.74;100.00
61961;BME280;47923;42.506;24.192;2024-03-02T09:17:09;94933.31;;;5.27;100.00
61961;BME280;47923;42.506;24.192;2024-03-02T09:19:36;94772.00;;;4.29;100.00
61961;BME280;47923;42.506;24.192;2024-03-02T09:22:02;94833.75;;;4.61;100.00
61961;BME280;47923;42.506;24.192;2024-03-02T09:24:28;95030.16;;;6.03;100.00
61961;BME280;47923;42.506;24.192;2024-03-02T09:26:54;95055.53;;;6.33;99.80
61961;BME280;47923;42.506;24.192;2024-03-02T09:29:19;94940.50;;;5.64;99.66
61961;BME280;47923;42.506;24.192;2024-03-02T09:31:46;94945.06;;;5.75;99.96
61961;BME280;47923;42.506;24.192;2024-03-02T09:34:12;95001.91;;;6.21;99.92
61961;BME280;47923;42.506;24.192;2024-03-02T09:36:37;94941.47;;;5.71;99.40
61961;BME280;47923;42.506;24.192;2024-03-02T09:39:03;95014.66;;;6.24;99.56
61961;BME280;47923;42.506;24.192;2024-03-02T09:41:29;95002.50;;;6.43;99.85
61961;BME280;47923;42.506;24.192;2024-03-02T09:43:55;94540.66;;;3.43;99.45
61961;BME280;47923;42.506;24.192;2024-03-02T09:46:20;95028.41;;;6.79;99.75
61961;BME280;47923;42.506;24.192;2024-03-02T09:48:46;94913.53;;;5.85;98.56
61961;BME280;47923;42.506;24.192;2024-03-02T09:51:11;94886.06;;;5.88;98.77
61961;BME280;47923;42.506;24.192;2024-03-02T09:53:37;95006.91;;;6.79;97.77
61961;BME280;47923;42.506;24.192;2024-03-02T09:56:03;95081.31;;;7.69;96.89
61961;BME280;47923;42.506;24.192;2024-03-02T09:58:30;95051.75;;;7.69;95.21
61961;BME280;47923;42.506;24.192;2024-03-02T10:00:56;94910.69;;;6.81;93.49
61961;BME280;47923;42.506;24.192;2024-03-02T10:03:23;95035.19;;;7.67;93.53
61961;BME280;47923;42.506;24.192;2024-03-02T10:05:53;94977.41;;;7.42;94.00
61961;BME280;47923;42.506;24.192;2024-03-02T10:08:18;94803.88;;;6.39;92.75
61961;BME280;47923;42.506;24.192;2024-03-02T10:10:44;95113.56;;;8.71;92.58
61961;BME280;47923;42.506;24.192;2024-03-02T10:13:11;94905.16;;;7.40;91.47
61961;BME280;47923;42.506;24.192;2024-03-02T10:15:37;95107.50;;;9.17;90.48
61961;BME280;47923;42.506;24.192;2024-03-02T10:18:04;94667.69;;;6.52;89.50
61961;BME280;47923;42.506;24.192;2024-03-02T10:20:29;95057.03;;;9.36;88.75
61961;BME280;47923;42.506;24.192;2024-03-02T10:23:15;94863.13;;;8.29;88.21
61961;BME280;47923;42.506;24.192;2024-03-02T10:25:42;94828.75;;;7.99;87.09
61961;BME280;47923;42.506;24.192;2024-03-02T10:28:08;94814.38;;;8.11;86.97
61961;BME280;47923;42.506;24.192;2024-03-02T10:30:34;95023.28;;;9.46;85.84
61961;BME280;47923;42.506;24.192;2024-03-02T10:33:03;94923.91;;;8.95;85.66
61961;BME280;47923;42.506;24.192;2024-03-02T10:35:30;94910.13;;;9.00;85.85
61961;BME280;47923;42.506;24.192;2024-03-02T10:38:04;94800.44;;;8.28;85.60
61961;BME280;47923;42.506;24.192;2024-03-02T10:40:29;94855.69;;;8.65;85.68
61961;BME280;47923;42.506;24.192;2024-03-02T10:42:55;94980.84;;;9.17;85.19
61961;BME280;47923;42.506;24.192;2024-03-02T10:45:21;94916.19;;;8.71;85.79
61961;BME280;47923;42.506;24.192;2024-03-02T10:47:49;94883.78;;;8.44;85.87
61961;BME280;47923;42.506;24.192;2024-03-02T10:50:15;94901.28;;;8.54;86.95
61961;BME280;47923;42.506;24.192;2024-03-02T10:52:40;95009.94;;;9.53;88.54
61961;BME280;47923;42.506;24.192;2024-03-02T10:55:06;94918.41;;;9.11;89.62
61961;BME280;47923;42.506;24.192;2024-03-02T11:00:14;94989.91;;;9.81;84.65
61961;BME280;47923;42.506;24.192;2024-03-02T11:02:50;94881.78;;;9.33;83.71
61961;BME280;47923;42.506;24.192;2024-03-02T11:05:32;95017.88;;;10.52;82.34
61961;BME280;47923;42.506;24.192;2024-03-02T11:08:08;94957.53;;;9.81;82.50
61961;BME280;47923;42.506;24.192;2024-03-02T11:10:50;94845.13;;;9.28;84.25
61961;BME280;47923;42.506;24.192;2024-03-02T11:13:22;94875.59;;;9.06;83.84
61961;BME280;47923;42.506;24.192;2024-03-02T11:15:52;95019.44;;;9.96;85.11
61961;BME280;47923;42.506;24.192;2024-03-02T11:18:19;94965.34;;;9.59;85.15
61961;BME280;47923;42.506;24.192;2024-03-02T11:20:45;94861.19;;;9.21;85.17
61961;BME280;47923;42.506;24.192;2024-03-02T11:23:11;94903.19;;;9.79;83.25
61961;BME280;47923;42.506;24.192;2024-03-02T11:25:37;95020.59;;;10.56;83.39
61961;BME280;47923;42.506;24.192;2024-03-02T11:28:06;95033.66;;;10.84;82.29
61961;BME280;47923;42.506;24.192;2024-03-02T11:32:57;94908.16;;;10.07;80.45
61961;BME280;47923;42.506;24.192;2024-03-02T11:35:25;94792.16;;;9.77;80.44
61961;BME280;47923;42.506;24.192;2024-03-02T11:37:51;94936.50;;;10.94;79.44
61961;BME280;47923;42.506;24.192;2024-03-02T11:40:24;94950.16;;;11.12;79.57
61961;BME280;47923;42.506;24.192;2024-03-02T11:42:50;95025.16;;;11.67;78.56
61961;BME280;47923;42.506;24.192;2024-03-02T11:45:17;94932.91;;;11.31;77.64
61961;BME280;47923;42.506;24.192;2024-03-02T11:47:50;94963.91;;;11.41;77.10
61961;BME280;47923;42.506;24.192;2024-03-02T11:50:16;94722.75;;;9.70;77.66
61961;BME280;47923;42.506;24.192;2024-03-02T11:52:53;94787.94;;;10.54;79.13
61961;BME280;47923;42.506;24.192;2024-03-02T11:55:19;94858.53;;;10.96;74.24
61961;BME280;47923;42.506;24.192;2024-03-02T11:57:46;94940.47;;;11.59;76.78
61961;BME280;47923;42.506;24.192;2024-03-02T12:00:18;94928.91;;;11.66;77.69
61961;BME280;47923;42.506;24.192;2024-03-02T12:02:45;94975.50;;;11.93;76.31
61961;BME280;47923;42.506;24.192;2024-03-02T12:05:15;94934.59;;;11.50;76.67
61961;BME280;47923;42.506;24.192;2024-03-02T12:07:42;94831.28;;;10.71;74.36
61961;BME280;47923;42.506;24.192;2024-03-02T12:10:08;94860.13;;;11.08;73.94
61961;BME280;47923;42.506;24.192;2024-03-02T12:12:34;95022.09;;;12.23;73.54
61961;BME280;47923;42.506;24.192;2024-03-02T12:14:59;95037.94;;;12.21;73.61
61961;BME280;47923;42.506;24.192;2024-03-02T12:17:26;94838.91;;;11.06;73.23
61961;BME280;47923;42.506;24.192;2024-03-02T12:19:51;94891.22;;;10.84;75.00
61961;BME280;47923;42.506;24.192;2024-03-02T12:22:17;94839.44;;;10.78;74.94
61961;BME280;47923;42.506;24.192;2024-03-02T12:24:43;95019.81;;;12.29;73.63
61961;BME280;47923;42.506;24.192;2024-03-02T12:27:12;94692.72;;;9.75;72.84
61961;BME280;47923;42.506;24.192;2024-03-02T12:29:38;94659.84;;;9.25;74.23
61961;BME280;47923;42.506;24.192;2024-03-02T12:32:05;95001.00;;;11.40;73.91
61961;BME280;47923;42.506;24.192;2024-03-02T12:34:31;94984.25;;;11.24;76.72
61961;BME280;47923;42.506;24.192;2024-03-02T12:36:57;95007.91;;;11.82;76.52
61961;BME280;47923;42.506;24.192;2024-03-02T12:39:22;95002.28;;;12.05;75.96
61961;BME280;47923;42.506;24.192;2024-03-02T12:41:49;94866.72;;;10.63;72.40
61961;BME280;47923;42.506;24.192;2024-03-02T12:44:19;94941.22;;;11.08;70.23
61961;BME280;47923;42.506;24.192;2024-03-02T12:46:46;95020.97;;;12.28;70.88
61961;BME280;47923;42.506;24.192;2024-03-02T12:49:13;94838.28;;;11.31;70.01
61961;BME280;47923;42.506;24.192;2024-03-02T12:51:40;95019.91;;;12.54;70.73
61961;BME280;47923;42.506;24.192;2024-03-02T12:54:09;94944.44;;;12.49;73.70
61961;BME280;47923;42.506;24.192;2024-03-02T12:56:36;95016.66;;;13.24;71.67
61961;BME280;47923;42.506;24.192;2024-03-02T12:59:03;94853.34;;;11.98;70.46
61961;BME280;47923;42.506;24.192;2024-03-02T13:01:28;94916.00;;;12.03;69.02
61961;BME280;47923;42.506;24.192;2024-03-02T13:03:54;94835.03;;;11.70;67.97